Time;durP1;ratioP1;P1;durP2;ratioP2;P2;SDS_P1;SDS_P2;PMS_P1;PMS_P2;Temp;Humidity;BMP_temperature;BMP_pressure;BME280_temperature;BME280_humidity;BME280_pressure;Samples;Min_cycle;Max_cycle;Signal;HPM_P1;HPM_P2
2023/02/26 00:01:36;;;;;;;3.08;2.08;;;;;;;-3.00;100.00;98120.22;4201394;28;20047;-73
2023/02/26 00:03:36;;;;;;;8.63;2.28;;;;;;;-3.06;100.00;98124.13;4198465;28;20134;-74
2023/02/26 00:05:37;;;;;;;6.68;2.10;;;;;;;-3.08;100.00;98126.31;4191432;28;20044;-73
2023/02/26 00:07:38;;;;;;;4.65;2.55;;;;;;;-3.14;100.00;98123.72;4196180;28;20052;-73
2023/02/26 00:09:38;;;;;;;5.93;1.98;;;;;;;-3.09;100.00;98130.13;4197817;28;20399;-74
2023/02/26 00:11:38;;;;;;;6.95;2.42;;;;;;;-3.07;100.00;98127.94;4196281;28;20091;-74
2023/02/26 00:13:41;;;;;;;7.95;1.98;;;;;;;-3.01;100.00;98140.28;4194228;28;20074;-74
2023/02/26 00:15:42;;;;;;;;;;;;;;;-2.94;100.00;98141.50;4194221;28;20051;-74
2023/02/26 00:17:58;;;;;;;2.35;1.45;;;;;;;-2.86;100.00;98148.13;4197461;28;19919;-74
2023/02/26 00:19:59;;;;;;;2.42;1.40;;;;;;;-2.98;100.00;98145.09;4199917;28;20136;-73
2023/02/26 00:21:59;;;;;;;6.07;1.73;;;;;;;-3.06;100.00;98146.59;4195061;28;20499;-73
2023/02/26 00:24:01;;;;;;;2.17;1.50;;;;;;;-3.07;100.00;98158.50;4191881;28;20135;-74
2023/02/26 00:26:01;;;;;;;5.15;1.75;;;;;;;-3.28;100.00;98155.34;4191437;28;20090;-73
2023/02/26 00:28:01;;;;;;;2.65;1.95;;;;;;;-3.22;100.00;98156.88;4191806;28;20044;-73
2023/02/26 00:30:07;;;;;;;4.35;1.75;;;;;;;-3.26;100.00;98153.16;4196426;28;20434;-73
2023/02/26 00:32:07;;;;;;;4.07;1.40;;;;;;;-3.28;100.00;98159.97;4191485;28;20487;-74
2023/02/26 00:34:11;;;;;;;4.65;1.50;;;;;;;-3.38;100.00;98158.22;4192432;28;20109;-74
2023/02/26 00:36:17;;;;;;;2.88;1.92;;;;;;;-3.43;100.00;98163.72;4191096;28;20488;-74
2023/02/26 00:38:18;;;;;;;4.30;1.88;;;;;;;-3.49;100.00;98146.75;4198894;28;20036;-74
2023/02/26 00:40:24;;;;;;;3.92;1.48;;;;;;;-3.51;100.00;98157.06;4191760;28;20485;-74
2023/02/26 00:42:25;;;;;;;3.35;1.35;;;;;;;-3.56;100.00;98151.72;4191704;28;20442;-74
2023/02/26 00:44:25;;;;;;;2.63;1.48;;;;;;;-3.56;100.00;98159.81;4193597;28;20082;-74
2023/02/26 00:46:43;;;;;;;4.13;1.30;;;;;;;-3.55;100.00;98156.06;4194919;28;20044;-73
2023/02/26 00:48:58;;;;;;;3.08;1.67;;;;;;;-3.54;100.00;98171.19;4191711;28;20114;-73
2023/02/26 00:51:06;;;;;;;1.77;1.23;;;;;;;-3.57;100.00;98160.94;4190977;28;20072;-74
2023/02/26 00:53:20;;;;;;;4.10;1.50;;;;;;;-3.55;100.00;98164.16;4195708;28;20040;-74
2023/02/26 00:55:21;;;;;;;1.35;1.00;;;;;;;-3.56;100.00;98170.66;4192142;28;20056;-74
2023/02/26 00:57:21;;;;;;;1.80;1.05;;;;;;;-3.59;100.00;98170.44;4197859;28;20109;-74
2023/02/26 00:59:21;;;;;;;2.92;1.20;;;;;;;-3.62;100.00;98166.44;4197674;28;20040;-74
2023/02/26 01:01:22;;;;;;;1.98;1.52;;;;;;;-3.67;100.00;98163.78;4197752;28;20051;-74
2023/02/26 01:03:22;;;;;;;4.07;1.27;;;;;;;-3.69;100.00;98166.78;4197697;28;20036;-73
2023/02/26 01:05:23;;;;;;;1.42;1.13;;;;;;;-3.74;100.00;98171.47;4195356;28;20603;-73
2023/02/26 01:07:26;;;;;;;1.92;1.20;;;;;;;-3.78;100.00;98175.84;4199426;28;20801;-74
2023/02/26 01:09:32;;;;;;;1.00;0.98;;;;;;;-3.77;100.00;98167.44;4191775;28;20106;-73
2023/02/26 01:11:35;;;;;;;6.13;2.03;;;;;;;-3.81;100.00;98163.72;4191575;28;20044;-73
2023/02/26 01:13:35;;;;;;;;;;;;;;;-3.83;100.00;98170.50;4189976;28;20392;-73
2023/02/26 01:15:36;;;;;;;2.13;1.30;;;;;;;-3.85;100.00;98178.91;4191995;28;20494;-73
2023/02/26 01:17:47;;;;;;;2.90;1.42;;;;;;;-3.92;100.00;98172.25;4201109;28;20036;-74
2023/02/26 01:20:00;;;;;;;1.35;1.17;;;;;;;-4.01;100.00;98174.81;4190996;28;20123;-74
2023/02/26 01:22:09;;;;;;;3.40;1.70;;;;;;;-4.04;100.00;98173.50;4194304;28;20503;-74
2023/02/26 01:24:14;;;;;;;3.25;2.03;;;;;;;-4.04;100.00;98168.09;4188868;28;20060;-73
2023/02/26 01:26:19;;;;;;;6.22;1.77;;;;;;;-3.97;100.00;98182.06;4195329;28;20035;-74
2023/02/26 01:28:20;;;;;;;3.03;1.83;;;;;;;-3.89;100.00;98177.88;4192981;28;20028;-73
2023/02/26 01:30:21;;;;;;;2.35;1.55;;;;;;;-3.93;100.00;98184.16;4191882;28;20521;-74
2023/02/26 01:32:41;;;;;;;3.90;2.40;;;;;;;-3.97;100.00;98181.25;4192449;28;21001;-74
2023/02/26 01:34:49;;;;;;;3.67;1.85;;;;;;;-3.98;100.00;98176.91;4190889;28;20426;-74
2023/02/26 01:36:57;;;;;;;6.25;2.60;;;;;;;-3.99;100.00;98195.03;4190808;28;20131;-74
2023/02/26 01:39:18;;;;;;;7.38;2.33;;;;;;;-3.93;100.00;98184.16;4189925;28;20119;-74
2023/02/26 01:41:32;;;;;;;3.63;2.10;;;;;;;-3.90;100.00;98192.50;4193708;28;20044;-74
2023/02/26 01:43:55;;;;;;;4.15;2.30;;;;;;;-3.85;100.00;98188.94;4190499;28;20087;-74
2023/02/26 01:46:04;;;;;;;3.25;1.98;;;;;;;-3.72;100.00;98185.50;4191252;28;20051;-73
2023/02/26 01:48:22;;;;;;;1.98;1.50;;;;;;;-3.64;100.00;98198.38;4189547;28;20423;-73
2023/02/26 01:50:28;;;;;;;4.82;1.70;;;;;;;-3.66;100.00;98203.25;4191097;28;20040;-74
2023/02/26 01:52:47;;;;;;;3.42;1.58;;;;;;;-3.59;100.00;98192.06;4192308;28;20111;-73
2023/02/26 01:54:47;;;;;;;2.70;1.80;;;;;;;-3.57;100.00;98187.16;4195943;28;20393;-73
2023/02/26 01:57:10;;;;;;;3.75;1.38;;;;;;;-3.58;100.00;98189.06;4194895;28;20055;-73
2023/02/26 01:59:15;;;;;;;2.92;1.33;;;;;;;-3.53;100.00;98197.13;4190955;28;20040;-73
2023/02/26 02:01:15;;;;;;;3.33;1.42;;;;;;;-3.52;100.00;98198.72;4195374;28;20124;-73
2023/02/26 02:03:15;;;;;;;2.00;1.20;;;;;;;-3.54;100.00;98203.63;4190416;28;20441;-73
2023/02/26 02:05:23;;;;;;;2.00;1.08;;;;;;;-3.49;100.00;98206.25;4191118;28;20067;-73
2023/02/26 02:07:24;;;;;;;3.63;1.42;;;;;;;-3.51;100.00;98205.75;4191484;28;20035;-73
2023/02/26 02:09:24;;;;;;;4.90;1.27;;;;;;;-3.46;100.00;98208.38;4196072;28;20104;-73
2023/02/26 02:11:25;;;;;;;6.78;1.70;;;;;;;-3.47;100.00;98203.28;4194602;28;20059;-73
2023/02/26 02:13:38;;;;;;;1.40;1.10;;;;;;;-3.43;100.00;98204.28;4190528;28;20049;-73
2023/02/26 02:15:54;;;;;;;6.10;1.50;;;;;;;-3.45;100.00;98210.00;4192887;28;20380;-73
2023/02/26 02:18:01;;;;;;;3.42;1.30;;;;;;;-3.50;100.00;98215.47;4192511;28;20043;-73
2023/02/26 02:20:31;;;;;;;2.20;1.20;;;;;;;-3.49;100.00;98205.44;4191216;28;20048;-74
2023/02/26 02:22:52;;;;;;;2.75;1.27;;;;;;;-3.51;100.00;98215.75;4192610;28;20525;-73
2023/02/26 02:25:14;;;;;;;4.43;1.40;;;;;;;-3.45;100.00;98212.69;4192176;28;20052;-73
2023/02/26 02:27:25;;;;;;;2.63;1.30;;;;;;;-3.37;100.00;98215.84;4194838;28;20045;-73
2023/02/26 02:29:43;;;;;;;2.00;1.40;;;;;;;-3.37;100.00;98213.94;4196136;28;20040;-73
2023/02/26 02:31:51;;;;;;;1.88;1.08;;;;;;;-3.33;100.00;98219.53;4200715;28;20175;-73
2023/02/26 02:33:59;;;;;;;3.08;1.40;;;;;;;-3.33;100.00;98220.34;4193720;28;20048;-73
2023/02/26 02:36:34;;;;;;;3.72;1.80;;;;;;;-3.29;100.00;98221.38;4193709;28;20594;-73
2023/02/26 02:38:44;;;;;;;6.88;1.80;;;;;;;-3.27;100.00;98223.78;4136861;28;20062;-73
2023/02/26 02:40:52;;;;;;;8.02;1.75;;;;;;;-3.29;100.00;98234.91;4195472;28;20046;-73
2023/02/26 02:43:03;;;;;;;5.57;1.33;;;;;;;-3.23;100.00;98225.59;4193526;28;20052;-73
2023/02/26 02:45:08;;;;;;;1.50;1.40;;;;;;;-3.20;100.00;98232.34;4192975;28;20052;-73
2023/02/26 02:47:11;;;;;;;4.03;1.42;;;;;;;-3.21;100.00;98231.53;4193994;28;20497;-73
2023/02/26 02:49:21;;;;;;;2.35;1.65;;;;;;;-3.13;100.00;98232.78;4192516;28;20056;-73
2023/02/26 02:51:36;;;;;;;4.72;1.42;;;;;;;-3.17;100.00;98232.56;4191640;28;20055;-73
2023/02/26 02:53:53;;;;;;;4.38;1.67;;;;;;;-3.16;100.00;98239.56;4197365;28;20082;-73
2023/02/26 02:56:03;;;;;;;2.05;1.55;;;;;;;-3.10;100.00;98237.59;4203283;28;20174;-73
2023/02/26 02:58:07;;;;;;;1.88;1.42;;;;;;;-3.08;100.00;98248.91;4193979;28;20044;-73
2023/02/26 03:00:10;;;;;;;2.53;2.08;;;;;;;-3.04;100.00;98249.16;4197811;28;20484;-73
2023/02/26 03:02:18;;;;;;;3.03;1.52;;;;;;;-3.00;100.00;98252.88;4193146;28;20036;-73
2023/02/26 03:04:18;;;;;;;5.00;1.70;;;;;;;-2.95;100.00;98250.88;4193342;28;20086;-73
2023/02/26 03:06:19;;;;;;;2.15;1.42;;;;;;;-2.96;100.00;98253.91;4198115;28;20431;-73
2023/02/26 03:08:23;;;;;;;6.07;1.70;;;;;;;-3.03;100.00;98258.88;4198092;28;20468;-73
2023/02/26 03:10:24;;;;;;;2.90;1.83;;;;;;;-3.01;100.00;98256.69;4192879;28;20639;-73
2023/02/26 03:12:26;;;;;;;4.05;1.40;;;;;;;-3.00;100.00;98258.28;4195931;28;20090;-73
2023/02/26 03:14:27;;;;;;;5.90;1.90;;;;;;;-3.01;100.00;98248.56;4200486;28;20043;-73
2023/02/26 03:16:52;;;;;;;2.83;1.60;;;;;;;-2.98;100.00;98262.31;4194044;28;20040;-73
2023/02/26 03:19:03;;;;;;;3.38;1.60;;;;;;;-2.89;100.00;98259.75;4195753;28;20516;-73
2023/02/26 03:21:12;;;;;;;5.60;1.85;;;;;;;-2.98;100.00;98264.19;4192742;28;20119;-73
2023/02/26 03:23:23;;;;;;;1.98;1.45;;;;;;;-2.93;100.00;98270.34;4194091;28;20040;-73
2023/02/26 03:25:34;;;;;;;2.53;1.38;;;;;;;-2.91;100.00;98278.16;4192698;28;20427;-73
2023/02/26 03:27:43;;;;;;;3.63;1.65;;;;;;;-2.98;100.00;98275.03;4192641;28;20059;-73
2023/02/26 03:29:58;;;;;;;3.25;1.50;;;;;;;-2.97;100.00;98277.47;4198150;28;20056;-73
2023/02/26 03:32:08;;;;;;;3.38;1.45;;;;;;;-2.97;100.00;98280.16;4193126;28;20053;-73
2023/02/26 03:34:18;;;;;;;3.00;1.70;;;;;;;-3.05;100.00;98283.53;4191971;28;20056;-73
2023/02/26 03:36:30;;;;;;;4.07;2.03;;;;;;;-3.09;100.00;98293.31;4196948;28;20483;-73
2023/02/26 03:38:46;;;;;;;3.03;1.50;;;;;;;-3.08;100.00;98294.94;4198487;28;20044;-73
2023/02/26 03:40:54;;;;;;;2.70;1.52;;;;;;;-3.10;100.00;98297.13;4200305;28;20119;-73
2023/02/26 03:43:02;;;;;;;3.13;1.70;;;;;;;-3.09;100.00;98296.03;4197037;28;20065;-73
2023/02/26 03:45:13;;;;;;;2.88;1.92;;;;;;;-3.08;100.00;98304.97;4196440;28;20079;-73
2023/02/26 03:47:15;;;;;;;2.85;1.77;;;;;;;-3.13;100.00;98314.78;4192414;28;20041;-73
2023/02/26 03:49:25;;;;;;;4.13;1.75;;;;;;;-3.20;100.00;98311.63;4194063;28;20098;-73
2023/02/26 03:51:27;;;;;;;5.47;2.35;;;;;;;-3.19;100.00;98307.81;4191281;28;20055;-73
2023/02/26 03:53:32;;;;;;;2.95;1.25;;;;;;;-3.12;100.00;98312.88;4194386;28;20052;-73
2023/02/26 03:55:41;;;;;;;3.30;1.55;;;;;;;-3.15;100.00;98319.66;4201361;28;20590;-73
2023/02/26 03:57:42;;;;;;;4.28;1.80;;;;;;;-3.12;100.00;98323.69;4194092;28;20296;-73
2023/02/26 03:59:42;;;;;;;3.97;1.60;;;;;;;-3.22;100.00;98323.84;4195044;28;20526;-73
2023/02/26 04:01:57;;;;;;;5.78;1.70;;;;;;;-3.28;100.00;98330.41;4196337;28;20185;-73
2023/02/26 04:04:06;;;;;;;3.05;1.58;;;;;;;-3.36;100.00;98331.88;4194888;28;20044;-73
2023/02/26 04:06:07;;;;;;;3.15;1.73;;;;;;;-3.34;100.00;98347.81;4192559;28;20253;-73
2023/02/26 04:08:07;;;;;;;2.60;1.65;;;;;;;-3.41;100.00;98342.75;4196402;28;20472;-73
2023/02/26 04:10:10;;;;;;;6.93;2.03;;;;;;;-3.41;100.00;98337.34;4196742;28;20028;-73
2023/02/26 04:12:10;;;;;;;4.97;1.80;;;;;;;-3.42;100.00;98343.84;4194569;28;20526;-73
2023/02/26 04:14:11;;;;;;;2.50;1.63;;;;;;;-3.45;100.00;98339.81;4192514;28;20712;-73
2023/02/26 04:16:12;;;;;;;2.78;1.50;;;;;;;-3.48;100.00;98353.09;4192223;28;20035;-73
2023/02/26 04:18:12;;;;;;;2.92;1.67;;;;;;;-3.46;100.00;98354.44;4192078;28;20033;-73
2023/02/26 04:20:12;;;;;;;9.25;1.92;;;;;;;-3.50;100.00;98358.00;4192738;28;20385;-73
2023/02/26 04:22:13;;;;;;;2.95;1.55;;;;;;;-3.50;100.00;98353.41;4194746;28;20435;-73
2023/02/26 04:24:13;;;;;;;4.78;1.90;;;;;;;-3.46;100.00;98357.16;4191039;28;20029;-74
2023/02/26 04:26:13;;;;;;;2.65;1.58;;;;;;;-3.48;100.00;98353.91;4194680;28;20074;-74
2023/02/26 04:28:14;;;;;;;3.60;1.80;;;;;;;-3.49;100.00;98360.41;4197482;28;20107;-73
2023/02/26 04:30:15;;;;;;;3.72;1.90;;;;;;;-3.51;100.00;98356.41;4191919;28;20039;-73
2023/02/26 04:32:15;;;;;;;2.45;1.60;;;;;;;-3.51;100.00;98368.03;4191718;28;20025;-73
2023/02/26 04:34:15;;;;;;;4.93;1.92;;;;;;;-3.54;100.00;98367.81;4191975;28;20074;-73
2023/02/26 04:36:16;;;;;;;2.97;1.52;;;;;;;-3.62;100.00;98361.13;4194767;28;20021;-73
2023/02/26 04:38:16;;;;;;;5.32;2.13;;;;;;;-3.56;100.00;98368.06;4192073;28;20033;-73
2023/02/26 04:40:16;;;;;;;2.45;1.60;;;;;;;-3.58;100.00;98362.16;4196079;28;20035;-73
2023/02/26 04:42:17;;;;;;;3.38;2.17;;;;;;;-3.62;100.00;98369.25;4192852;28;20029;-73
2023/02/26 04:44:17;;;;;;;3.80;1.90;;;;;;;-3.57;100.00;98377.28;4190700;28;20068;-73
2023/02/26 04:46:17;;;;;;;6.05;2.35;;;;;;;-3.55;100.00;98377.81;4193001;28;20319;-73
2023/02/26 04:48:18;;;;;;;3.83;1.60;;;;;;;-3.63;100.00;98370.34;4195615;28;20660;-73
2023/02/26 04:50:18;;;;;;;3.67;1.67;;;;;;;-3.57;100.00;98381.88;4194580;28;20032;-73
2023/02/26 04:52:19;;;;;;;2.50;1.75;;;;;;;-3.57;100.00;98382.69;4191342;28;20040;-73
2023/02/26 04:54:19;;;;;;;4.97;1.45;;;;;;;-3.63;100.00;98386.56;4195138;28;20476;-73
2023/02/26 04:56:19;;;;;;;6.15;1.73;;;;;;;-3.59;100.00;98386.78;4191378;28;20468;-73
2023/02/26 04:58:20;;;;;;;3.13;1.65;;;;;;;-3.55;100.00;98385.13;4194207;28;20029;-73
2023/02/26 05:00:20;;;;;;;3.58;1.95;;;;;;;-3.60;100.00;98387.88;4192330;28;21167;-74
2023/02/26 05:02:20;;;;;;;5.55;1.95;;;;;;;-3.62;100.00;98393.59;4191323;28;20532;-73
2023/02/26 05:04:21;;;;;;;4.65;1.67;;;;;;;-3.65;100.00;98388.72;4196143;28;20064;-73
2023/02/26 05:06:21;;;;;;;2.65;1.45;;;;;;;-3.63;100.00;98399.28;4194179;28;20488;-73
2023/02/26 05:08:22;;;;;;;1.98;1.77;;;;;;;-3.63;100.00;98402.78;4196711;28;20036;-73
2023/02/26 05:10:24;;;;;;;2.40;1.80;;;;;;;-3.60;100.00;98407.63;4191540;28;20058;-73
2023/02/26 05:12:24;;;;;;;3.47;1.42;;;;;;;-3.67;100.00;98407.16;4189873;28;20400;-73
2023/02/26 05:14:24;;;;;;;4.95;1.88;;;;;;;-3.66;100.00;98424.97;4194635;28;20094;-73
2023/02/26 05:16:25;;;;;;;15.13;5.28;;;;;;;-3.60;100.00;98418.44;4195967;28;20090;-73
2023/02/26 05:18:25;;;;;;;4.90;1.55;;;;;;;-3.67;100.00;98431.47;4193037;28;20059;-73
2023/02/26 05:20:25;;;;;;;1.85;1.55;;;;;;;-3.68;100.00;98421.75;4191893;28;20186;-73
2023/02/26 05:22:25;;;;;;;3.85;1.67;;;;;;;-3.64;100.00;98427.41;4190436;28;20130;-73
2023/02/26 05:24:26;;;;;;;3.97;1.92;;;;;;;-3.61;100.00;98432.25;4195315;28;20064;-73
2023/02/26 05:26:26;;;;;;;2.42;1.80;;;;;;;-3.64;100.00;98430.94;4193504;28;20052;-73
2023/02/26 05:28:27;;;;;;;2.55;1.60;;;;;;;-3.61;100.00;98441.16;4191408;28;20540;-73
2023/02/26 05:30:27;;;;;;;1.77;1.50;;;;;;;-3.63;100.00;98434.44;4197373;28;20036;-73
2023/02/26 05:32:27;;;;;;;1.90;1.70;;;;;;;-3.67;100.00;98445.81;4192146;28;20052;-73
2023/02/26 05:34:28;;;;;;;5.35;1.90;;;;;;;-3.67;100.00;98442.31;4198764;28;20466;-73
2023/02/26 05:36:28;;;;;;;5.55;1.45;;;;;;;-3.61;100.00;98446.56;4191232;28;20101;-73
2023/02/26 05:38:28;;;;;;;2.35;1.60;;;;;;;-3.63;100.00;98451.47;4197221;28;20392;-73
2023/02/26 05:40:29;;;;;;;3.85;2.10;;;;;;;-3.61;100.00;98454.69;4191237;28;20079;-73
2023/02/26 05:42:29;;;;;;;6.18;2.10;;;;;;;-3.54;100.00;98459.75;4195255;28;20041;-74
2023/02/26 05:44:29;;;;;;;3.97;1.90;;;;;;;-3.58;100.00;98454.09;4197477;28;20533;-73
2023/02/26 05:46:30;;;;;;;1.85;1.58;;;;;;;-3.60;100.00;98466.31;4193715;28;20072;-73
2023/02/26 05:48:30;;;;;;;3.92;1.75;;;;;;;-3.61;100.00;98465.50;4197039;28;20127;-73
2023/02/26 05:50:30;;;;;;;3.33;1.75;;;;;;;-3.56;100.00;98481.66;4192508;28;20075;-73
2023/02/26 05:52:31;;;;;;;3.20;1.55;;;;;;;-3.61;100.00;98479.03;4190258;28;20162;-73
2023/02/26 05:54:32;;;;;;;2.08;1.65;;;;;;;-3.56;100.00;98480.84;4189212;28;20049;-73
2023/02/26 05:56:32;;;;;;;3.40;1.77;;;;;;;-3.59;100.00;98484.94;4191608;28;20068;-74
2023/02/26 05:58:32;;;;;;;4.85;1.80;;;;;;;-3.58;100.00;98491.16;4195068;28;20472;-73
2023/02/26 06:00:33;;;;;;;2.45;1.38;;;;;;;-3.60;100.00;98490.66;4194937;28;20670;-73
2023/02/26 06:02:33;;;;;;;7.82;3.13;;;;;;;-3.61;100.00;98487.13;4191080;28;20360;-73
2023/02/26 06:04:34;;;;;;;22.48;13.15;;;;;;;-3.61;100.00;98508.78;4190696;28;20083;-73
2023/02/26 06:06:36;;;;;;;3.80;1.60;;;;;;;-3.59;100.00;98501.19;4194080;28;20515;-73
2023/02/26 06:08:37;;;;;;;;;;;;;;;-3.58;100.00;98507.38;4191674;28;20045;-73
2023/02/26 06:10:37;;;;;;;1.92;1.73;;;;;;;-3.62;100.00;98509.06;4195332;28;19912;-74
2023/02/26 06:12:38;;;;;;;2.33;1.83;;;;;;;-3.62;100.00;98517.97;4191031;28;20412;-73
2023/02/26 06:14:39;;;;;;;6.32;2.08;;;;;;;-3.61;100.00;98524.19;4192676;28;20123;-74
2023/02/26 06:16:39;;;;;;;2.38;1.50;;;;;;;-3.55;100.00;98526.56;4194373;28;20072;-73
2023/02/26 06:18:39;;;;;;;3.92;1.92;;;;;;;-3.57;100.00;98523.31;4193712;28;20055;-74
2023/02/26 06:20:40;;;;;;;3.92;1.85;;;;;;;-3.60;100.00;98534.72;4190464;28;20087;-73
2023/02/26 06:22:40;;;;;;;2.47;1.75;;;;;;;-3.56;100.00;98538.47;4192499;28;20123;-73
2023/02/26 06:24:40;;;;;;;4.05;1.52;;;;;;;-3.56;100.00;98533.06;4193423;28;20045;-73
2023/02/26 06:26:41;;;;;;;3.05;1.67;;;;;;;-3.57;100.00;98531.44;4193472;28;20063;-73
2023/02/26 06:28:41;;;;;;;2.15;1.48;;;;;;;-3.59;100.00;98544.44;4194371;28;20278;-73
2023/02/26 06:30:41;;;;;;;3.72;1.85;;;;;;;-3.58;100.00;98548.75;4190789;28;20068;-73
2023/02/26 06:32:43;;;;;;;6.05;2.70;;;;;;;-3.51;100.00;98545.72;4190808;28;20131;-73
2023/02/26 06:34:43;;;;;;;4.05;1.85;;;;;;;-3.53;100.00;98546.03;4191060;28;20044;-73
2023/02/26 06:36:44;;;;;;;2.15;1.58;;;;;;;-3.52;100.00;98546.81;4193144;28;20044;-73
2023/02/26 06:38:45;;;;;;;3.15;1.80;;;;;;;-3.52;100.00;98561.16;4188982;28;20158;-73
2023/02/26 06:40:47;;;;;;;2.92;1.55;;;;;;;-3.51;100.00;98570.06;4194552;28;20083;-73
2023/02/26 06:42:47;;;;;;;3.20;1.52;;;;;;;-3.50;100.00;98577.09;4189997;28;20060;-73
2023/02/26 06:44:47;;;;;;;1.60;1.40;;;;;;;-3.47;100.00;98568.44;4189456;28;20056;-74
2023/02/26 06:46:48;;;;;;;3.72;1.70;;;;;;;-3.52;100.00;98585.50;4192810;28;20135;-73
2023/02/26 06:48:48;;;;;;;5.45;2.78;;;;;;;-3.52;100.00;98580.09;4190387;28;20063;-73
2023/02/26 06:50:48;;;;;;;2.75;1.80;;;;;;;-3.50;100.00;98582.50;4187866;28;20110;-73
2023/02/26 06:52:49;;;;;;;4.47;1.80;;;;;;;-3.44;100.00;98587.59;4185327;28;20048;-73
2023/02/26 06:54:50;;;;;;;2.88;1.83;;;;;;;-3.46;100.00;98597.91;4109428;28;20369;-73
2023/02/26 06:56:51;;;;;;;1.80;1.30;;;;;;;-3.41;100.00;98607.84;4191931;28;20081;-73
2023/02/26 06:58:51;;;;;;;4.30;1.95;;;;;;;-3.43;100.00;98596.50;4190158;28;20066;-73
2023/02/26 07:00:51;;;;;;;2.40;1.52;;;;;;;-3.43;100.00;98613.56;4188177;28;20488;-73
2023/02/26 07:02:52;;;;;;;4.13;2.05;;;;;;;-3.42;100.00;98608.94;4192847;28;20516;-74
2023/02/26 07:04:52;;;;;;;6.80;1.70;;;;;;;-3.41;100.00;98621.38;4196951;28;20064;-73
2023/02/26 07:06:52;;;;;;;4.90;1.90;;;;;;;-3.43;100.00;98612.75;4186184;28;20049;-73
2023/02/26 07:08:55;;;;;;;4.43;2.10;;;;;;;-3.44;100.00;98628.16;4188116;28;20072;-73
2023/02/26 07:10:55;;;;;;;5.88;2.70;;;;;;;-3.41;100.00;98627.59;4189839;28;20044;-73
2023/02/26 07:12:55;;;;;;;3.20;1.70;;;;;;;-3.34;100.00;98619.16;4192570;28;20470;-73
2023/02/26 07:14:56;;;;;;;3.40;1.65;;;;;;;-3.29;100.00;98618.31;4193175;28;20052;-73
2023/02/26 07:16:56;;;;;;;6.28;1.95;;;;;;;-3.31;100.00;98631.31;4192377;28;20059;-73
2023/02/26 07:18:56;;;;;;;2.80;1.58;;;;;;;-3.23;100.00;98631.50;4195742;28;20053;-73
2023/02/26 07:20:57;;;;;;;2.40;1.80;;;;;;;-3.31;100.00;98626.72;4197968;28;20052;-73
2023/02/26 07:22:57;;;;;;;3.92;1.80;;;;;;;-3.35;100.00;98630.28;4193259;28;20045;-73
2023/02/26 07:24:59;;;;;;;2.85;1.52;;;;;;;-3.38;100.00;98637.06;4195597;28;20079;-73
2023/02/26 07:26:59;;;;;;;3.97;2.13;;;;;;;-3.37;100.00;98640.56;4188641;28;20049;-73
2023/02/26 07:28:59;;;;;;;4.15;1.83;;;;;;;-3.30;100.00;98635.66;4183917;28;20431;-73
2023/02/26 07:31:00;;;;;;;3.70;2.20;;;;;;;-3.29;100.00;98651.59;4191641;28;20036;-73
2023/02/26 07:33:00;;;;;;;2.65;2.00;;;;;;;-3.35;100.00;98647.31;4186091;28;20136;-73
2023/02/26 07:35:00;;;;;;;3.70;1.77;;;;;;;-3.31;100.00;98663.78;4189907;28;20070;-73
2023/02/26 07:37:01;;;;;;;4.53;2.20;;;;;;;-3.28;100.00;98658.63;4188922;28;20039;-73
2023/02/26 07:39:01;;;;;;;2.63;1.77;;;;;;;-3.38;100.00;98661.41;4191746;28;20048;-73
2023/02/26 07:41:01;;;;;;;4.47;2.53;;;;;;;-3.33;100.00;98665.97;4190894;28;20206;-74
2023/02/26 07:43:02;;;;;;;3.65;1.95;;;;;;;-3.30;100.00;98665.41;4194423;28;20048;-73
2023/02/26 07:45:02;;;;;;;4.03;1.95;;;;;;;-3.29;100.00;98678.66;4194359;28;20072;-73
2023/02/26 07:47:03;;;;;;;3.67;1.92;;;;;;;-3.22;100.00;98672.94;4198912;28;20451;-73
2023/02/26 07:49:03;;;;;;;3.58;2.38;;;;;;;-3.30;100.00;98684.34;4192909;28;20052;-73
2023/02/26 07:51:06;;;;;;;3.42;2.35;;;;;;;-3.25;100.00;98687.00;4192448;28;20054;-73
2023/02/26 07:53:06;;;;;;;;;;;;;;;-3.18;100.00;98691.00;4195108;28;20076;-73
2023/02/26 07:55:07;;;;;;;4.13;1.58;;;;;;;-3.17;100.00;98683.69;4192893;28;19920;-73
2023/02/26 07:57:08;;;;;;;2.95;2.00;;;;;;;-3.05;100.00;98692.28;4191869;28;20032;-74
2023/02/26 07:59:08;;;;;;;3.80;1.75;;;;;;;-3.07;100.00;98704.44;4192486;28;20048;-73
2023/02/26 08:01:09;;;;;;;4.07;1.75;;;;;;;-3.07;100.00;98707.16;4197489;28;20053;-73
2023/02/26 08:03:09;;;;;;;94.18;38.22;;;;;;;-3.13;100.00;98704.50;4195369;28;20045;-73
2023/02/26 08:05:10;;;;;;;17.20;10.35;;;;;;;-3.13;100.00;98703.69;4193831;28;20157;-73
2023/02/26 08:07:10;;;;;;;7.53;5.18;;;;;;;-3.09;100.00;98714.75;4199085;28;20044;-73
2023/02/26 08:09:10;;;;;;;3.50;2.42;;;;;;;-3.18;100.00;98712.66;4194059;28;20064;-74
2023/02/26 08:11:10;;;;;;;3.17;1.92;;;;;;;-3.10;100.00;98713.94;4194900;28;20056;-74
2023/02/26 08:13:11;;;;;;;4.15;2.55;;;;;;;-3.09;100.00;98712.06;4192894;28;20040;-74
2023/02/26 08:15:13;;;;;;;2.55;1.73;;;;;;;-3.07;100.00;98721.50;4194420;28;20048;-73
2023/02/26 08:17:13;;;;;;;5.57;3.10;;;;;;;-3.13;100.00;98715.34;4197699;28;20063;-74
2023/02/26 08:19:14;;;;;;;7.82;4.28;;;;;;;-3.10;100.00;98724.78;4192340;28;20044;-74
2023/02/26 08:21:15;;;;;;;8.13;4.25;;;;;;;-3.06;100.00;98725.00;4191866;28;20036;-73
2023/02/26 08:23:15;;;;;;;4.55;2.80;;;;;;;-3.11;100.00;98734.81;4193128;28;20471;-73
2023/02/26 08:25:15;;;;;;;3.08;2.22;;;;;;;-3.03;100.00;98729.88;4194012;28;20094;-73
2023/02/26 08:27:16;;;;;;;5.90;3.25;;;;;;;-2.98;100.00;98733.34;4194703;28;20229;-74
2023/02/26 08:29:17;;;;;;;7.63;3.03;;;;;;;-2.91;100.00;98738.44;4192757;28;20059;-74
2023/02/26 08:31:17;;;;;;;3.22;2.33;;;;;;;-2.86;100.00;98744.63;4192015;28;20504;-73
2023/02/26 08:33:18;;;;;;;2.95;2.25;;;;;;;-2.77;100.00;98742.09;4191535;28;20056;-73
2023/02/26 08:35:18;;;;;;;5.57;2.63;;;;;;;-2.76;100.00;98751.84;4191662;28;20048;-73
2023/02/26 08:37:21;;;;;;;4.43;2.60;;;;;;;-2.63;100.00;98759.31;4193576;28;20377;-73
2023/02/26 08:39:21;;;;;;;2.90;2.33;;;;;;;-2.56;100.00;98754.38;4191902;28;20537;-73
2023/02/26 08:41:22;;;;;;;4.60;3.28;;;;;;;-2.55;100.00;98758.69;4191971;28;20084;-73
2023/02/26 08:43:23;;;;;;;2.95;2.20;;;;;;;-2.47;100.00;98757.28;4190464;28;20049;-73
2023/02/26 08:45:24;;;;;;;4.80;2.38;;;;;;;-2.33;100.00;98763.63;4199534;28;20044;-73
2023/02/26 08:47:24;;;;;;;4.78;3.00;;;;;;;-2.34;100.00;98767.44;4192842;28;20664;-73
2023/02/26 08:49:24;;;;;;;4.25;2.33;;;;;;;-2.20;100.00;98777.59;4193029;28;20136;-73
2023/02/26 08:51:25;;;;;;;4.40;1.88;;;;;;;-2.11;100.00;98784.00;4195345;28;20174;-73
2023/02/26 08:53:25;;;;;;;3.13;2.60;;;;;;;-2.06;100.00;98779.34;4195871;28;20048;-73
2023/02/26 08:55:25;;;;;;;2.70;1.92;;;;;;;-2.02;100.00;98782.28;4190120;28;20048;-73
2023/02/26 08:57:26;;;;;;;5.65;2.70;;;;;;;-2.03;100.00;98784.19;4194473;28;20048;-73
2023/02/26 08:59:26;;;;;;;4.47;2.50;;;;;;;-2.01;100.00;98781.19;4188828;28;20029;-73
2023/02/26 09:01:26;;;;;;;2.55;1.77;;;;;;;-1.99;100.00;98792.53;4192902;28;20048;-73
2023/02/26 09:03:27;;;;;;;3.22;2.08;;;;;;;-2.00;100.00;98786.31;4191932;28;20458;-73
2023/02/26 09:05:27;;;;;;;3.85;1.90;;;;;;;-1.96;100.00;98810.97;4197354;28;20074;-73
2023/02/26 09:07:28;;;;;;;3.10;1.80;;;;;;;-2.00;100.00;98801.78;4191499;28;20036;-73
2023/02/26 09:09:28;;;;;;;2.97;1.60;;;;;;;-1.94;100.00;98803.34;4194367;28;20064;-73
2023/02/26 09:11:29;;;;;;;4.35;2.47;;;;;;;-1.86;100.00;98805.41;4191820;28;20400;-73
2023/02/26 09:13:30;;;;;;;2.58;1.75;;;;;;;-1.85;100.00;98807.03;4190829;28;20055;-73
2023/02/26 09:15:30;;;;;;;3.92;2.00;;;;;;;-1.85;100.00;98812.47;4191106;28;20040;-73
2023/02/26 09:17:31;;;;;;;4.32;2.17;;;;;;;-1.81;100.00;98812.69;4194013;28;20049;-73
2023/02/26 09:19:31;;;;;;;7.47;4.25;;;;;;;-1.71;100.00;98812.56;4191248;28;20041;-73
2023/02/26 09:21:32;;;;;;;6.93;2.78;;;;;;;-1.66;100.00;98827.97;4191292;28;20498;-73
2023/02/26 09:23:32;;;;;;;4.50;2.10;;;;;;;-1.64;100.00;98823.09;4190978;28;20092;-73
2023/02/26 09:25:33;;;;;;;3.35;1.95;;;;;;;-1.65;100.00;98826.91;4191179;28;20047;-73
2023/02/26 09:27:34;;;;;;;4.85;2.95;;;;;;;-1.65;100.00;98822.28;4191984;28;20569;-73
2023/02/26 09:29:36;;;;;;;4.82;3.03;;;;;;;-1.63;100.00;98828.22;4190950;28;20132;-73
2023/02/26 09:31:36;;;;;;;2.95;2.22;;;;;;;-1.76;100.00;98826.19;4197057;28;20052;-73
2023/02/26 09:33:37;;;;;;;3.33;2.45;;;;;;;-1.80;100.00;98825.16;4192896;28;20048;-73
2023/02/26 09:35:37;;;;;;;4.93;3.35;;;;;;;-1.81;100.00;98834.41;4190921;28;20094;-73